Terminal Aerodrome Forecast
Issued by NWS

Home | Current Version | Previous Version | Text Only | Print | Product List | Glossary On
Versions: 1 2 3 4 5 6 7 8 9 10 11 12 13 14 15 16 17 18 19 20 21 22 23 24 25
000
FTUS45 KSLC 171904 AAA
TAFBCE
TAF AMD
KBCE 171904Z 1719/1818 17011G18KT P6SM SCT090
     FM172100 17010G16KT P6SM VCSH SCT090
     FM180300 27008KT P6SM FEW090 SCT120
     FM181500 15007KT P6SM SCT090=

USA.gov is the U.S. government's official web portal to all federal, state and local government web resources and services.